Time;durP1;ratioP1;P1;durP2;ratioP2;P2;SDS_P1;SDS_P2;PMS_P1;PMS_P2;Temp;Humidity;BMP_temperature;BMP_pressure;BME280_temperature;BME280_humidity;BME280_pressure;Samples;Min_cycle;Max_cycle;Signal;HPM_P1;HPM_P2
2022/10/30 06:10:17;;;;;;;4.27;3.70;;;21.00;99.90;;;;;;5155806;27;20528;-67
2022/10/30 06:12:44;;;;;;;3.47;3.17;;;21.10;99.90;;;;;;5150779;27;20853;-63
2022/10/30 06:15:11;;;;;;;3.00;2.80;;;21.20;99.90;;;;;;5133272;27;20444;-63
2022/10/30 06:17:37;;;;;;;5.70;3.93;;;21.30;99.90;;;;;;5130561;27;20464;-63
2022/10/30 06:20:05;;;;;;;3.40;2.73;;;21.50;99.90;;;;;;5131921;27;20524;-64
2022/10/30 06:22:32;;;;;;;3.90;3.70;;;21.60;99.90;;;;;;5132837;27;20443;-64
2022/10/30 06:24:59;;;;;;;4.50;4.20;;;21.70;99.90;;;;;;5147462;27;20530;-66
2022/10/30 06:27:27;;;;;;;3.80;3.40;;;21.90;99.90;;;;;;5151271;27;20995;-66
2022/10/30 06:29:56;;;;;;;4.30;4.00;;;22.00;99.90;;;;;;5150574;27;20530;-63
2022/10/30 06:32:23;;;;;;;3.30;3.10;;;22.10;99.90;;;;;;5143340;27;20519;-55
2022/10/30 06:34:50;;;;;;;4.20;3.90;;;22.20;99.90;;;;;;5131345;27;20554;-68
2022/10/30 06:37:17;;;;;;;3.67;3.37;;;22.30;99.90;;;;;;5130018;27;20524;-63
2022/10/30 06:39:44;;;;;;;3.10;2.80;;;22.30;99.90;;;;;;5129917;27;20433;-63
2022/10/30 06:42:11;;;;;;;4.90;3.63;;;22.40;99.90;;;;;;5135684;27;20995;-64
2022/10/30 06:44:39;;;;;;;4.00;3.33;;;22.50;99.90;;;;;;5150305;27;20550;-61
2022/10/30 06:47:06;;;;;;;4.00;3.70;;;22.50;99.90;;;;;;5150280;27;20444;-61
2022/10/30 06:49:32;;;;;;;4.47;3.90;;;22.60;99.90;;;;;;5150221;27;20490;-61
2022/10/30 06:51:59;;;;;;;3.50;3.20;;;22.60;99.90;;;;;;5150251;27;21184;-61
2022/10/30 06:54:26;;;;;;;6.53;4.20;;;22.70;99.90;;;;;;5142682;27;20496;-62
2022/10/30 06:56:53;;;;;;;10.27;4.50;;;22.70;99.90;;;;;;5129321;27;20952;-63
2022/10/30 06:59:20;;;;;;;7.30;4.50;;;22.70;99.90;;;;;;5130004;27;20483;-64
2022/10/30 07:01:48;;;;;;;6.57;5.70;;;22.70;99.90;;;;;;5149633;27;20450;-59
2022/10/30 07:04:15;;;;;;;11.97;6.03;;;22.80;99.90;;;;;;5149909;27;20459;-60
2022/10/30 07:06:41;;;;;;;8.43;5.50;;;22.80;99.90;;;;;;5138111;27;20528;-54
2022/10/30 07:09:09;;;;;;;8.30;4.70;;;22.80;99.90;;;;;;5149608;27;20479;-58
2022/10/30 07:11:35;;;;;;;9.13;5.70;;;22.90;99.90;;;;;;5149559;27;20858;-53
2022/10/30 07:14:02;;;;;;;12.03;5.70;;;22.90;99.90;;;;;;5149472;27;20460;-56
2022/10/30 07:16:29;;;;;;;10.97;5.30;;;22.90;99.90;;;;;;5149749;27;20486;-54
2022/10/30 07:18:57;;;;;;;11.17;6.80;;;22.90;99.90;;;;;;5149384;27;20960;-56
2022/10/30 07:21:26;;;;;;;6.70;4.80;;;22.90;99.90;;;;;;5136819;27;20528;-54
2022/10/30 07:23:53;;;;;;;5.67;4.07;;;23.00;99.90;;;;;;5135472;27;20495;-57
2022/10/30 07:26:19;;;;;;;10.23;5.70;;;23.00;99.90;;;;;;5135692;27;20535;-58
2022/10/30 07:28:46;;;;;;;8.60;5.50;;;23.00;99.90;;;;;;5135496;27;20836;-56
2022/10/30 07:31:13;;;;;;;9.03;5.10;;;23.00;99.90;;;;;;5135270;27;20448;-54
2022/10/30 07:33:40;;;;;;;8.27;4.70;;;23.00;99.90;;;;;;5135392;27;20464;-54
2022/10/30 07:36:09;;;;;;;6.67;5.63;;;23.00;99.90;;;;;;5135544;27;20459;-57
2022/10/30 07:38:36;;;;;;;5.90;4.30;;;23.00;99.90;;;;;;5135620;27;20447;-57
2022/10/30 07:41:03;;;;;;;5.73;4.20;;;22.90;99.90;;;;;;5135220;27;21094;-58
2022/10/30 07:43:29;;;;;;;5.93;4.47;;;22.90;99.90;;;;;;5135303;27;20464;-54
2022/10/30 07:45:56;;;;;;;8.40;4.50;;;22.80;99.90;;;;;;5135197;27;20941;-59
2022/10/30 07:48:23;;;;;;;9.83;6.80;;;22.80;99.90;;;;;;5134995;27;20540;-59
2022/10/30 07:50:50;;;;;;;8.20;4.40;;;22.70;99.90;;;;;;5134747;27;20479;-55
2022/10/30 07:53:18;;;;;;;6.83;5.50;;;22.70;99.90;;;;;;5134893;27;20989;-54
2022/10/30 07:55:45;;;;;;;7.37;6.20;;;22.60;99.90;;;;;;5134995;27;20950;-58
2022/10/30 07:58:12;;;;;;;7.97;5.90;;;22.60;99.90;;;;;;5134883;27;20462;-59
2022/10/30 08:00:38;;;;;;;5.33;4.93;;;22.50;99.90;;;;;;5134738;27;20531;-55
2022/10/30 08:03:06;;;;;;;4.40;4.00;;;22.50;99.90;;;;;;5134800;27;20555;-55
2022/10/30 08:05:33;;;;;;;6.43;4.93;;;22.50;99.90;;;;;;5134809;27;20449;-58
2022/10/30 08:08:00;;;;;;;7.00;5.20;;;22.40;99.90;;;;;;5134709;27;20445;-60
2022/10/30 08:10:28;;;;;;;6.40;4.57;;;22.40;99.90;;;;;;5134514;27;20568;-60
2022/10/30 08:12:55;;;;;;;7.60;5.13;;;22.30;99.90;;;;;;5134505;27;20547;-60
2022/10/30 08:15:23;;;;;;;7.83;3.63;;;22.30;99.90;;;;;;5134637;27;20433;-59
2022/10/30 08:17:50;;;;;;;6.63;5.03;;;22.30;99.90;;;;;;5134590;27;20451;-59
2022/10/30 08:20:19;;;;;;;6.03;4.90;;;22.30;99.90;;;;;;5134387;27;20535;-60
2022/10/30 08:22:47;;;;;;;7.43;3.70;;;22.30;99.90;;;;;;5134483;27;20802;-60
2022/10/30 08:25:14;;;;;;;5.30;3.80;;;22.20;99.90;;;;;;5134446;27;20448;-60
2022/10/30 08:27:50;;;;;;;7.27;5.23;;;22.20;99.90;;;;;;5134346;27;20933;-56
2022/10/30 08:30:17;;;;;;;5.23;4.70;;;22.20;99.90;;;;;;5134169;27;20571;-59
2022/10/30 08:32:44;;;;;;;5.80;4.63;;;22.20;99.90;;;;;;5133189;27;20809;-57
2022/10/30 08:35:10;;;;;;;7.07;4.43;;;22.10;99.90;;;;;;5134287;27;20448;-56
2022/10/30 08:37:37;;;;;;;5.77;3.53;;;22.20;99.90;;;;;;5122705;27;20443;-64
2022/10/30 08:40:05;;;;;;;7.07;5.10;;;22.10;99.90;;;;;;5124827;27;20441;-65
2022/10/30 08:42:32;;;;;;;8.60;4.80;;;22.20;99.90;;;;;;5134037;27;20440;-65
2022/10/30 08:45:00;;;;;;;4.80;4.40;;;22.30;99.90;;;;;;5134097;27;20871;-64
2022/10/30 08:47:27;;;;;;;6.80;4.10;;;22.30;99.90;;;;;;5132152;27;20441;-65
2022/10/30 08:49:54;;;;;;;4.50;4.10;;;22.40;99.90;;;;;;5133485;27;20476;-65
2022/10/30 08:52:21;;;;;;;5.50;5.00;;;22.50;99.90;;;;;;5134227;27;20535;-67
2022/10/30 08:54:48;;;;;;;8.17;7.27;;;22.50;99.90;;;;;;5133962;27;20483;-65
2022/10/30 08:57:14;;;;;;;5.60;4.40;;;22.60;99.90;;;;;;5127374;27;20477;-66
2022/10/30 08:59:41;;;;;;;4.60;4.23;;;22.70;99.90;;;;;;5112954;28;20524;-65
2022/10/30 09:02:09;;;;;;;4.67;4.20;;;22.70;99.90;;;;;;5113374;28;20536;-65
2022/10/30 09:04:36;;;;;;;4.50;3.50;;;22.70;99.90;;;;;;5113033;28;20462;-63
2022/10/30 09:07:03;;;;;;;13.47;5.20;;;22.80;99.90;;;;;;5116773;27;20437;-64
2022/10/30 09:09:30;;;;;;;4.87;4.00;;;22.80;99.90;;;;;;5133544;27;20514;-65
2022/10/30 09:11:57;;;;;;;9.73;4.80;;;22.80;99.90;;;;;;5133350;27;20942;-62
2022/10/30 09:14:24;;;;;;;4.50;4.10;;;22.90;99.90;;;;;;5133657;27;20453;-65
2022/10/30 09:16:51;;;;;;;5.20;4.20;;;22.90;99.90;;;;;;5131604;27;20451;-60
2022/10/30 09:19:19;;;;;;;5.63;4.47;;;22.90;99.90;;;;;;5113028;28;20452;-60
2022/10/30 09:21:46;;;;;;;5.33;4.27;;;22.90;99.90;;;;;;5112979;28;20509;-65
2022/10/30 09:24:13;;;;;;;13.70;5.13;;;23.00;99.90;;;;;;5113242;28;20980;-62
2022/10/30 09:26:40;;;;;;;6.70;4.20;;;23.00;99.90;;;;;;5121506;27;20473;-67
2022/10/30 09:29:06;;;;;;;6.00;4.47;;;23.10;99.90;;;;;;5113295;28;20528;-62
2022/10/30 09:31:33;;;;;;;6.30;4.20;;;23.10;99.90;;;;;;5113022;28;20546;-67
2022/10/30 09:34:00;;;;;;;5.40;4.07;;;23.10;99.90;;;;;;5116762;27;20463;-64
2022/10/30 09:36:28;;;;;;;5.47;4.97;;;23.20;99.90;;;;;;5125275;27;20441;-66
2022/10/30 09:38:55;;;;;;;8.03;4.50;;;23.20;99.90;;;;;;5112677;28;20544;-65
2022/10/30 09:41:39;;;;;;;7.17;5.13;;;23.30;99.90;;;;;;5112476;28;20434;-64
2022/10/30 09:44:19;;;;;;;3.87;3.30;;;23.30;99.90;;;;;;5120898;27;20470;-63
2022/10/30 09:47:00;;;;;;;4.47;3.63;;;23.30;99.90;;;;;;5113864;27;20446;-62
2022/10/30 09:49:43;;;;;;;6.73;4.93;;;23.30;99.90;;;;;;5113540;27;20486;-62
2022/10/30 09:52:30;;;;;;;8.00;4.70;;;23.30;99.90;;;;;;5113409;27;20968;-62
2022/10/30 09:55:13;;;;;;;4.60;3.87;;;23.30;99.90;;;;;;5113865;28;20556;-65
2022/10/30 09:57:48;;;;;;;3.67;3.37;;;23.30;99.90;;;;;;5113184;28;20441;-66
2022/10/30 10:00:18;;;;;;;6.63;4.33;;;23.30;99.90;;;;;;5113626;28;20465;-66
2022/10/30 10:03:03;;;;;;;4.07;3.73;;;23.40;99.90;;;;;;5112871;28;20430;-65
2022/10/30 10:05:40;;;;;;;4.00;3.60;;;23.40;99.90;;;;;;5112882;28;20443;-66
2022/10/30 10:08:13;;;;;;;4.20;3.73;;;23.40;99.90;;;;;;5112640;28;20441;-65
2022/10/30 10:10:43;;;;;;;4.53;4.13;;;23.40;99.90;;;;;;5114465;27;20488;-65
2022/10/30 10:13:19;;;;;;;5.77;3.77;;;23.40;99.90;;;;;;5132679;27;20460;-65
2022/10/30 10:15:49;;;;;;;8.90;4.67;;;23.30;99.90;;;;;;5133036;27;20446;-65
2022/10/30 10:18:19;;;;;;;5.40;4.70;;;23.30;99.90;;;;;;5132379;27;20441;-63
2022/10/30 10:20:51;;;;;;;4.47;4.07;;;23.30;99.90;;;;;;5130895;27;20441;-65
2022/10/30 10:23:26;;;;;;;5.27;4.77;;;23.20;99.90;;;;;;5124370;27;20465;-65
2022/10/30 10:25:54;;;;;;;4.37;3.97;;;23.20;99.90;;;;;;5112217;28;20452;-61
2022/10/30 10:28:42;;;;;;;3.33;3.10;;;23.30;99.90;;;;;;5114280;28;20444;-63
2022/10/30 10:31:22;;;;;;;7.90;3.97;;;23.30;99.90;;;;;;5121881;27;20882;-64
2022/10/30 10:34:00;;;;;;;3.80;3.50;;;23.30;99.90;;;;;;5117285;27;20463;-65
2022/10/30 10:36:35;;;;;;;3.77;3.47;;;23.30;99.90;;;;;;5112649;28;20803;-65
2022/10/30 10:39:15;;;;;;;4.03;3.67;;;23.40;99.90;;;;;;5112035;28;20468;-66
2022/10/30 10:41:58;;;;;;;4.73;3.20;;;23.30;99.90;;;;;;5111911;28;20520;-65
2022/10/30 10:44:39;;;;;;;3.63;3.30;;;23.40;99.90;;;;;;5112379;28;20468;-67
2022/10/30 10:47:18;;;;;;;4.13;3.83;;;23.40;99.90;;;;;;5112217;28;20891;-67
2022/10/30 10:49:58;;;;;;;3.10;2.90;;;23.40;99.90;;;;;;5121895;27;20567;-64
2022/10/30 10:52:33;;;;;;;4.00;3.57;;;23.40;99.90;;;;;;5132600;27;20571;-61
2022/10/30 10:55:04;;;;;;;3.13;2.93;;;23.50;99.90;;;;;;5114141;27;20930;-63
2022/10/30 10:57:35;;;;;;;3.37;3.07;;;23.50;99.90;;;;;;5115959;27;20449;-60
2022/10/30 11:00:04;;;;;;;5.97;4.13;;;23.40;99.90;;;;;;5115968;28;20521;-61
2022/10/30 11:02:37;;;;;;;4.13;3.70;;;23.40;99.90;;;;;;5115715;28;20445;-62
2022/10/30 11:05:12;;;;;;;3.27;2.93;;;23.40;99.90;;;;;;5115919;27;20452;-60
2022/10/30 11:07:45;;;;;;;5.87;3.13;;;23.40;99.90;;;;;;5116171;28;20443;-61
2022/10/30 11:10:16;;;;;;;3.53;3.00;;;23.40;99.90;;;;;;5115466;27;20841;-60
2022/10/30 11:12:43;;;;;;;3.27;2.97;;;23.40;99.90;;;;;;5114817;28;20445;-64
2022/10/30 11:15:22;;;;;;;3.67;3.40;;;23.50;99.90;;;;;;5115328;28;20961;-63
2022/10/30 11:17:55;;;;;;;4.83;4.23;;;23.50;99.90;;;;;;5115623;28;20452;-63
2022/10/30 11:20:30;;;;;;;3.83;3.50;;;23.50;99.90;;;;;;5115148;28;20521;-60
2022/10/30 11:22:57;;;;;;;3.10;2.90;;;23.50;99.90;;;;;;5114608;28;20463;-60
2022/10/30 11:25:33;;;;;;;4.30;3.87;;;23.50;99.90;;;;;;5115392;28;20480;-63
2022/10/30 11:28:03;;;;;;;3.90;3.60;;;23.50;99.90;;;;;;5115480;28;20551;-63
2022/10/30 11:30:30;;;;;;;3.10;2.90;;;23.50;99.90;;;;;;5115215;28;20504;-60
2022/10/30 11:32:59;;;;;;;3.97;3.60;;;23.60;99.90;;;;;;5114747;28;20468;-65
2022/10/30 11:35:26;;;;;;;3.53;3.20;;;23.50;99.90;;;;;;5114943;28;21041;-63
2022/10/30 11:38:12;;;;;;;3.63;3.33;;;23.60;99.90;;;;;;5114965;28;20968;-59
2022/10/30 11:40:48;;;;;;;3.77;2.80;;;23.60;99.90;;;;;;5114732;28;20495;-60
2022/10/30 11:43:20;;;;;;;4.43;3.50;;;23.60;99.90;;;;;;5114482;28;20469;-58
2022/10/30 11:45:47;;;;;;;3.60;3.30;;;23.60;99.90;;;;;;5114948;28;20447;-60
2022/10/30 11:48:22;;;;;;;3.23;2.83;;;23.50;99.90;;;;;;5114725;28;20536;-61
2022/10/30 11:50:51;;;;;;;5.53;3.43;;;23.50;99.90;;;;;;5114524;28;20476;-57
2022/10/30 11:53:23;;;;;;;3.33;2.80;;;23.50;99.90;;;;;;5114188;28;20472;-60
2022/10/30 11:55:51;;;;;;;3.40;3.10;;;23.40;99.90;;;;;;5114686;28;20460;-62
2022/10/30 11:58:26;;;;;;;3.10;2.90;;;23.40;99.90;;;;;;5114476;27;20919;-60
2022/10/30 12:01:02;;;;;;;2.90;2.70;;;23.40;99.90;;;;;;5114300;28;20444;-57
2022/10/30 12:03:30;;;;;;;4.07;3.03;;;23.30;99.90;;;;;;5114163;28;20465;-58
2022/10/30 12:06:09;;;;;;;4.33;4.03;;;23.30;99.90;;;;;;5114309;28;20536;-61
2022/10/30 12:08:36;;;;;;;4.20;3.23;;;23.30;99.90;;;;;;5114160;28;20455;-57
2022/10/30 12:11:05;;;;;;;2.83;2.70;;;23.30;99.90;;;;;;5114027;28;20576;-59
2022/10/30 12:13:40;;;;;;;2.87;2.67;;;23.20;99.90;;;;;;5114355;27;20461;-61
2022/10/30 12:16:12;;;;;;;3.37;3.07;;;23.20;99.90;;;;;;5114020;28;20952;-60
2022/10/30 12:18:40;;;;;;;3.60;2.90;;;23.20;99.90;;;;;;5113830;28;20437;-56
2022/10/30 12:21:07;;;;;;;3.07;2.83;;;23.20;99.90;;;;;;5114095;28;20441;-58
2022/10/30 12:23:35;;;;;;;3.40;3.10;;;23.20;99.90;;;;;;5103484;22;20492;-63
2022/10/30 12:26:10;;;;;;;3.37;3.07;;;23.20;99.90;;;;;;5033304;28;20520;-66
2022/10/30 12:28:38;;;;;;;3.40;3.20;;;23.30;99.90;;;;;;5033453;28;20450;-69
2022/10/30 12:31:12;;;;;;;4.27;3.60;;;23.40;99.90;;;;;;5033058;28;20483;-68
2022/10/30 12:33:43;;;;;;;3.20;2.90;;;23.40;99.90;;;;;;5032969;28;20477;-63
2022/10/30 12:36:14;;;;;;;5.03;3.13;;;23.50;99.90;;;;;;5033385;28;20547;-64
2022/10/30 12:38:45;;;;;;;3.63;2.67;;;23.50;99.90;;;;;;5033191;28;20922;-63
2022/10/30 12:41:19;;;;;;;3.63;2.97;;;23.60;99.90;;;;;;5032880;28;20524;-64
2022/10/30 12:43:52;;;;;;;3.37;3.07;;;23.60;99.90;;;;;;5033880;28;20980;-64
2022/10/30 12:46:33;;;;;;;3.60;3.30;;;23.60;99.90;;;;;;5033906;28;20498;-63
2022/10/30 12:49:07;;;;;;;3.63;2.97;;;23.70;99.90;;;;;;5033431;28;20452;-64
2022/10/30 12:51:41;;;;;;;3.87;3.57;;;23.70;99.90;;;;;;5032564;28;20499;-66
2022/10/30 12:54:15;;;;;;;2.73;2.63;;;23.70;99.90;;;;;;5033108;28;20464;-66
2022/10/30 12:56:47;;;;;;;3.60;3.27;;;23.70;99.90;;;;;;5033246;28;20963;-66
2022/10/30 12:59:25;;;;;;;2.90;2.70;;;23.70;99.90;;;;;;5033138;28;20455;-65
2022/10/30 13:01:57;;;;;;;4.10;2.80;;;23.80;99.90;;;;;;5032930;28;20445;-65
2022/10/30 13:04:27;;;;;;;3.47;2.77;;;23.80;99.90;;;;;;5032881;28;20467;-66
2022/10/30 13:06:59;;;;;;;3.73;3.03;;;23.80;99.90;;;;;;5032996;28;20852;-67
2022/10/30 13:09:32;;;;;;;3.77;3.43;;;23.80;99.90;;;;;;5032723;28;21001;-68
2022/10/30 13:12:05;;;;;;;3.63;2.70;;;23.80;99.90;;;;;;5031872;28;20989;-66
2022/10/30 13:14:40;;;;;;;2.97;2.73;;;23.90;99.90;;;;;;5032474;28;20461;-64
2022/10/30 13:17:11;;;;;;;5.93;3.93;;;23.90;99.90;;;;;;5032409;28;20444;-65
2022/10/30 13:19:39;;;;;;;3.87;3.47;;;23.90;99.90;;;;;;5031715;28;20958;-64
2022/10/30 13:22:13;;;;;;;3.93;3.20;;;24.00;99.90;;;;;;5032236;28;20947;-62
2022/10/30 13:24:48;;;;;;;3.73;2.87;;;23.90;99.90;;;;;;5032347;28;20834;-61
2022/10/30 13:27:22;;;;;;;3.03;2.83;;;24.00;99.90;;;;;;5032645;28;20936;-59
2022/10/30 13:29:54;;;;;;;2.80;2.70;;;24.00;99.90;;;;;;5032686;28;20453;-63
2022/10/30 13:32:31;;;;;;;3.60;3.30;;;24.00;99.90;;;;;;5031985;28;20487;-64
2022/10/30 13:35:09;;;;;;;3.00;2.70;;;24.00;99.90;;;;;;5032398;28;20448;-63
2022/10/30 13:37:41;;;;;;;2.83;2.63;;;24.00;99.90;;;;;;5032803;28;20873;-64
2022/10/30 13:40:19;;;;;;;3.23;3.03;;;24.00;99.90;;;;;;5032280;28;20445;-63
2022/10/30 13:42:58;;;;;;;3.73;3.37;;;24.00;99.90;;;;;;5032845;28;20548;-63
2022/10/30 13:45:40;;;;;;;3.43;3.23;;;24.10;99.90;;;;;;5032159;28;20452;-61
2022/10/30 13:48:13;;;;;;;3.17;2.90;;;24.10;99.90;;;;;;5032505;28;20467;-64
2022/10/30 13:51:06;;;;;;;2.73;2.33;;;24.00;99.90;;;;;;5031904;28;20558;-63
2022/10/30 13:53:37;;;;;;;3.27;2.63;;;24.10;99.90;;;;;;5032589;28;20536;-63
2022/10/30 13:56:04;;;;;;;3.10;2.90;;;24.10;99.90;;;;;;5032251;28;20816;-62
2022/10/30 13:58:40;;;;;;;3.10;2.90;;;24.10;99.90;;;;;;5031801;28;20492;-64
2022/10/30 14:01:15;;;;;;;5.33;2.80;;;24.10;99.90;;;;;;5031714;28;20440;-64
2022/10/30 14:03:50;;;;;;;3.60;3.30;;;24.10;99.90;;;;;;5031752;28;21021;-63
2022/10/30 14:06:26;;;;;;;2.90;2.73;;;24.10;99.90;;;;;;5031927;28;20532;-64
2022/10/30 14:09:00;;;;;;;2.93;2.73;;;24.10;99.90;;;;;;5031998;28;20458;-67
2022/10/30 14:11:26;;;;;;;2.53;2.33;;;24.20;99.90;;;;;;5031713;28;21010;-64
2022/10/30 14:13:56;;;;;;;3.10;2.90;;;24.20;99.90;;;;;;5031796;28;20500;-64
2022/10/30 14:16:40;;;;;;;3.70;3.40;;;24.20;99.90;;;;;;5031931;28;20449;-63
2022/10/30 14:19:08;;;;;;;2.77;2.67;;;24.20;99.90;;;;;;5030979;28;20473;-61
2022/10/30 14:21:44;;;;;;;3.50;2.67;;;24.20;99.90;;;;;;5031452;28;20538;-64
2022/10/30 14:24:14;;;;;;;2.80;2.53;;;24.20;99.90;;;;;;5031684;28;20473;-63
2022/10/30 14:26:49;;;;;;;2.97;2.77;;;24.20;99.90;;;;;;5031684;28;20445;-61
2022/10/30 14:29:41;;;;;;;3.23;3.03;;;24.20;99.90;;;;;;5031406;28;20483;-63
2022/10/30 14:32:38;;;;;;;2.50;2.37;;;24.10;99.90;;;;;;5035530;28;20488;-63
2022/10/30 14:35:30;;;;;;;3.47;3.17;;;24.20;99.90;;;;;;5035531;28;20783;-63
2022/10/30 14:37:57;;;;;;;2.73;2.43;;;24.20;99.90;;;;;;5035634;28;20445;-62
2022/10/30 14:40:40;;;;;;;2.90;2.70;;;24.20;99.90;;;;;;5034873;28;20580;-64
2022/10/30 14:43:14;;;;;;;3.20;2.73;;;24.20;99.90;;;;;;5035958;28;20463;-65
2022/10/30 14:45:48;;;;;;;6.43;3.00;;;24.20;99.90;;;;;;5037423;28;20445;-64
2022/10/30 14:48:22;;;;;;;3.00;2.23;;;24.20;99.90;;;;;;5034906;28;20445;-64
2022/10/30 14:51:04;;;;;;;3.07;2.87;;;24.20;99.90;;;;;;5035754;28;20471;-62
2022/10/30 14:53:57;;;;;;;3.00;2.90;;;24.20;99.90;;;;;;5035962;28;20468;-63
2022/10/30 14:56:35;;;;;;;3.27;2.93;;;24.10;99.90;;;;;;5035322;28;20524;-63
2022/10/30 14:59:22;;;;;;;2.77;2.60;;;24.10;99.90;;;;;;5034941;28;20451;-60
2022/10/30 15:01:59;;;;;;;2.43;2.33;;;24.10;99.90;;;;;;5034758;28;20452;-63
2022/10/30 15:04:36;;;;;;;3.33;3.03;;;24.10;99.90;;;;;;5034800;28;20468;-63
2022/10/30 15:07:08;;;;;;;2.73;2.50;;;24.10;99.90;;;;;;5035119;28;20480;-64
2022/10/30 15:09:56;;;;;;;2.47;2.33;;;24.10;99.90;;;;;;5034440;28;20445;-63
2022/10/30 15:12:37;;;;;;;2.50;2.40;;;24.10;99.90;;;;;;5034604;28;20485;-63
2022/10/30 15:15:10;;;;;;;2.50;2.30;;;24.10;99.90;;;;;;5034765;28;20441;-63
2022/10/30 15:17:41;;;;;;;2.03;1.97;;;24.10;99.90;;;;;;5034563;28;20857;-64
2022/10/30 15:20:16;;;;;;;2.47;2.27;;;24.10;99.90;;;;;;5034224;28;20449;-60
2022/10/30 15:22:44;;;;;;;2.43;2.23;;;24.10;99.90;;;;;;5034480;28;20470;-63
2022/10/30 15:25:17;;;;;;;2.87;2.67;;;24.10;99.90;;;;;;5034618;28;20451;-60
2022/10/30 15:27:46;;;;;;;2.30;2.13;;;24.10;99.90;;;;;;5032648;28;20938;-59
2022/10/30 15:30:18;;;;;;;3.00;2.70;;;24.10;99.90;;;;;;5034942;28;21137;-63
2022/10/30 15:32:46;;;;;;;2.50;2.30;;;24.20;99.90;;;;;;5035430;28;20487;-63
2022/10/30 15:35:17;;;;;;;4.13;3.80;;;24.20;99.90;;;;;;5036285;28;20467;-62
2022/10/30 15:37:57;;;;;;;3.37;3.03;;;24.20;99.90;;;;;;5035201;28;20449;-63
2022/10/30 15:40:24;;;;;;;2.83;2.57;;;24.20;99.90;;;;;;5031509;28;20992;-59
2022/10/30 15:42:52;;;;;;;4.00;2.50;;;24.10;99.90;;;;;;5033645;28;20461;-62
2022/10/30 15:45:22;;;;;;;2.70;2.50;;;24.00;99.90;;;;;;5034175;28;20463;-61
2022/10/30 15:47:58;;;;;;;5.23;3.77;;;24.00;99.90;;;;;;5034106;28;20449;-62
2022/10/30 15:50:25;;;;;;;3.60;3.00;;;24.00;99.90;;;;;;5032406;28;20459;-62
2022/10/30 15:52:52;;;;;;;3.80;2.90;;;24.00;99.90;;;;;;5033255;28;20477;-62
2022/10/30 15:55:24;;;;;;;5.50;4.03;;;23.90;99.90;;;;;;5034042;28;20527;-62
2022/10/30 15:57:53;;;;;;;5.83;3.10;;;23.80;99.90;;;;;;5034031;28;20451;-62
2022/10/30 16:00:22;;;;;;;3.40;3.10;;;23.70;99.90;;;;;;5033753;28;20829;-62
2022/10/30 16:02:59;;;;;;;2.60;2.40;;;23.70;99.90;;;;;;5033614;28;20469;-62
2022/10/30 16:05:27;;;;;;;4.83;3.03;;;23.70;99.90;;;;;;5034023;28;20463;-62
2022/10/30 16:07:56;;;;;;;4.00;3.60;;;23.60;99.90;;;;;;5033773;28;20484;-62
2022/10/30 16:10:24;;;;;;;2.60;2.40;;;23.50;99.90;;;;;;5033608;28;20455;-62
2022/10/30 16:12:54;;;;;;;3.20;2.67;;;23.50;99.90;;;;;;5033553;28;20495;-62
2022/10/30 16:15:26;;;;;;;2.80;2.60;;;23.50;99.90;;;;;;5033671;28;20773;-61
2022/10/30 16:18:08;;;;;;;2.47;2.27;;;23.40;99.90;;;;;;5033032;28;20455;-61
2022/10/30 16:20:36;;;;;;;2.80;2.60;;;23.40;99.90;;;;;;5033525;28;20532;-62
2022/10/30 16:23:05;;;;;;;5.33;3.00;;;23.40;99.90;;;;;;5033356;28;20481;-62
2022/10/30 16:25:36;;;;;;;4.40;3.30;;;23.30;99.90;;;;;;5033437;28;20476;-62
2022/10/30 16:28:03;;;;;;;5.00;3.93;;;23.30;99.90;;;;;;5033622;28;20449;-61
2022/10/30 16:30:30;;;;;;;3.43;3.13;;;23.30;99.90;;;;;;5033303;28;20437;-61
2022/10/30 16:32:59;;;;;;;3.47;3.17;;;23.30;99.90;;;;;;5033068;28;20489;-62
2022/10/30 16:35:27;;;;;;;5.43;3.27;;;23.20;99.90;;;;;;5033283;28;20451;-62
2022/10/30 16:37:56;;;;;;;4.70;3.60;;;23.20;99.90;;;;;;5033092;28;20449;-62
2022/10/30 16:40:25;;;;;;;3.07;2.87;;;23.20;99.90;;;;;;5032945;28;20446;-62
2022/10/30 16:42:56;;;;;;;5.40;2.97;;;23.20;99.90;;;;;;5032965;28;20457;-61
2022/10/30 16:45:50;;;;;;;3.03;2.93;;;23.10;99.90;;;;;;5033174;28;20450;-62
2022/10/30 16:48:23;;;;;;;5.10;3.37;;;23.10;99.90;;;;;;5028396;28;20459;-61
2022/10/30 16:50:51;;;;;;;3.10;2.30;;;23.10;99.90;;;;;;5032723;28;20467;-62
2022/10/30 16:53:20;;;;;;;4.40;3.40;;;23.00;99.90;;;;;;5031902;28;20489;-63
2022/10/30 16:55:47;;;;;;;3.10;2.90;;;23.00;99.90;;;;;;5032730;28;20447;-61
2022/10/30 16:58:15;;;;;;;4.30;3.27;;;23.00;99.90;;;;;;5032899;28;20448;-62
2022/10/30 17:00:49;;;;;;;3.77;3.47;;;23.00;99.90;;;;;;5032543;28;20927;-62
2022/10/30 17:03:21;;;;;;;3.47;3.13;;;23.00;99.90;;;;;;5032458;28;20460;-62
2022/10/30 17:05:59;;;;;;;3.03;2.83;;;23.00;99.90;;;;;;5032758;28;20511;-60
2022/10/30 17:08:34;;;;;;;4.40;3.70;;;23.00;99.90;;;;;;5032659;28;20451;-61
2022/10/30 17:11:02;;;;;;;3.53;3.23;;;23.00;99.90;;;;;;5032410;28;20444;-60
2022/10/30 17:13:37;;;;;;;4.43;3.13;;;23.00;99.90;;;;;;5032476;28;20489;-61
2022/10/30 17:16:23;;;;;;;5.03;4.50;;;22.90;99.90;;;;;;5032520;28;20451;-62
2022/10/30 17:18:50;;;;;;;3.00;2.80;;;22.90;99.90;;;;;;5031952;28;20449;-61
2022/10/30 17:21:21;;;;;;;3.97;3.20;;;22.90;99.90;;;;;;5032116;28;20451;-62
2022/10/30 17:23:50;;;;;;;3.43;3.17;;;22.90;99.90;;;;;;5032234;28;20483;-61
2022/10/30 17:26:18;;;;;;;3.40;3.10;;;22.90;99.90;;;;;;5032379;28;20942;-61
2022/10/30 17:28:46;;;;;;;4.33;3.93;;;22.90;99.90;;;;;;5032381;28;20536;-62
2022/10/30 17:31:25;;;;;;;5.27;3.40;;;22.90;99.90;;;;;;5031945;28;20451;-62
2022/10/30 17:34:13;;;;;;;5.90;4.13;;;22.90;99.90;;;;;;5032037;28;20561;-62
2022/10/30 17:36:41;;;;;;;8.37;4.00;;;22.90;99.90;;;;;;5032292;28;20445;-62
2022/10/30 17:39:08;;;;;;;5.50;3.97;;;22.90;99.90;;;;;;5032134;28;20447;-63
2022/10/30 17:41:36;;;;;;;6.50;3.87;;;22.80;99.90;;;;;;5031850;28;20445;-62
2022/10/30 17:44:04;;;;;;;5.00;3.17;;;22.80;99.90;;;;;;5031973;28;20468;-63
2022/10/30 17:46:31;;;;;;;4.53;4.03;;;22.80;99.90;;;;;;5031900;28;20455;-63
2022/10/30 17:48:59;;;;;;;4.40;3.93;;;22.80;99.90;;;;;;5031758;28;20929;-61
2022/10/30 17:51:28;;;;;;;4.00;3.70;;;22.80;99.90;;;;;;5031818;28;20449;-62
2022/10/30 17:53:56;;;;;;;4.07;3.67;;;22.80;99.90;;;;;;5031754;28;20485;-62
2022/10/30 17:56:27;;;;;;;3.53;3.23;;;22.80;99.90;;;;;;5032109;28;20487;-61
2022/10/30 17:58:54;;;;;;;5.17;3.60;;;22.80;99.90;;;;;;5031869;28;20447;-62
2022/10/30 18:01:23;;;;;;;3.90;3.60;;;22.80;99.90;;;;;;5031585;28;20449;-62
2022/10/30 18:03:53;;;;;;;5.60;4.70;;;22.80;99.90;;;;;;5031482;28;20492;-62
2022/10/30 18:06:22;;;;;;;5.80;4.63;;;22.80;99.90;;;;;;5031786;28;20865;-62
2022/10/30 18:08:49;;;;;;;3.80;3.47;;;22.80;99.90;;;;;;5031826;28;20451;-61
2022/10/30 18:11:19;;;;;;;9.30;3.80;;;22.80;99.90;;;;;;5029578;28;20441;-61
2022/10/30 18:13:47;;;;;;;5.87;5.03;;;22.80;99.90;;;;;;5028500;28;20988;-61
2022/10/30 18:16:16;;;;;;;6.60;5.30;;;22.80;99.90;;;;;;5031834;28;20444;-63
2022/10/30 18:18:44;;;;;;;8.47;5.60;;;22.80;99.90;;;;;;5031162;28;20449;-61
2022/10/30 18:21:12;;;;;;;7.37;5.10;;;22.80;99.90;;;;;;5031105;28;20449;-63
2022/10/30 18:23:39;;;;;;;5.40;4.70;;;22.80;99.90;;;;;;5046104;22;20492;-66
2022/10/30 18:26:07;;;;;;;6.83;4.50;;;22.90;99.90;;;;;;5031654;28;20441;-65
2022/10/30 18:28:36;;;;;;;11.73;6.10;;;22.90;99.90;;;;;;5031893;28;20447;-66
2022/10/30 18:31:02;;;;;;;7.83;5.90;;;23.00;99.90;;;;;;5031721;28;20529;-65
2022/10/30 18:33:29;;;;;;;4.63;4.23;;;23.00;99.90;;;;;;5031567;28;20567;-65
2022/10/30 18:35:59;;;;;;;7.57;6.03;;;23.10;99.90;;;;;;5031516;28;20910;-65
2022/10/30 18:38:26;;;;;;;5.30;4.80;;;23.20;99.90;;;;;;5031581;28;20539;-65
2022/10/30 18:40:53;;;;;;;6.53;4.80;;;23.20;99.90;;;;;;5031055;28;20476;-66
2022/10/30 18:43:20;;;;;;;4.93;4.30;;;23.20;99.90;;;;;;5031231;28;20878;-66
2022/10/30 18:45:48;;;;;;;5.10;4.00;;;23.30;99.90;;;;;;5031380;28;20451;-65
2022/10/30 18:48:15;;;;;;;4.50;4.10;;;23.30;99.90;;;;;;5031466;28;20452;-65
2022/10/30 18:50:42;;;;;;;5.57;4.93;;;23.30;99.90;;;;;;5030445;28;20531;-65
2022/10/30 18:53:15;;;;;;;5.77;4.30;;;23.30;99.90;;;;;;5031288;28;20495;-62
2022/10/30 18:55:43;;;;;;;8.10;4.73;;;23.30;99.90;;;;;;5031482;28;20938;-65
2022/10/30 18:58:10;;;;;;;9.70;5.90;;;23.30;99.90;;;;;;5030330;28;20548;-65
2022/10/30 19:00:39;;;;;;;5.93;5.30;;;23.40;99.90;;;;;;5011788;28;20544;-64
2022/10/30 19:03:07;;;;;;;9.50;5.40;;;23.40;99.90;;;;;;5011612;28;20544;-64
2022/10/30 19:05:38;;;;;;;6.93;5.87;;;23.40;99.90;;;;;;5011676;28;20450;-62
2022/10/30 19:08:06;;;;;;;8.30;6.27;;;23.40;99.90;;;;;;5022781;28;20540;-65
2022/10/30 19:10:35;;;;;;;6.50;5.10;;;23.40;99.90;;;;;;5031070;28;20908;-63
2022/10/30 19:13:06;;;;;;;5.47;4.60;;;23.40;99.90;;;;;;5031033;28;20571;-64
2022/10/30 19:15:36;;;;;;;7.63;5.03;;;23.40;99.90;;;;;;5031265;28;20452;-64